createdAt,value
2023-04-09T00:00:13.123Z,17.17
2023-04-09T00:02:39.991Z,16.77
2023-04-09T00:05:07.917Z,16.73
2023-04-09T00:07:34.614Z,17.00
2023-04-09T00:10:01.433Z,16.98
2023-04-09T00:12:30.185Z,16.45
2023-04-09T00:14:57.475Z,16.67
2023-04-09T00:17:24.288Z,15.95
2023-04-09T00:19:51.077Z,16.17
2023-04-09T00:22:17.761Z,17.33
2023-04-09T00:24:44.401Z,15.60
2023-04-09T00:27:11.055Z,15.48
2023-04-09T00:29:37.785Z,15.07
2023-04-09T00:32:04.584Z,15.45
2023-04-09T00:34:31.327Z,13.95
2023-04-09T00:36:57.972Z,14.57
2023-04-09T00:39:24.802Z,14.27
2023-04-09T00:41:57.220Z,13.90
2023-04-09T00:44:23.842Z,14.18
2023-04-09T00:46:50.599Z,13.30
2023-04-09T00:49:17.727Z,13.38
2023-04-09T00:51:46.250Z,14.02
2023-04-09T00:54:13.072Z,13.75
2023-04-09T00:56:42.142Z,13.68
2023-04-09T00:59:08.852Z,13.65
2023-04-09T01:01:36.064Z,13.70
2023-04-09T01:04:03.380Z,14.43
2023-04-09T01:06:41.512Z,13.27
2023-04-09T01:09:42.315Z,14.10
2023-04-09T01:12:28.683Z,12.80
2023-04-09T01:15:04.368Z,13.05
2023-04-09T01:18:05.274Z,13.02
2023-04-09T01:20:43.359Z,12.43
2023-04-09T01:23:29.261Z,12.80
2023-04-09T01:26:41.280Z,12.82
2023-04-09T01:29:09.406Z,13.18
2023-04-09T01:31:38.872Z,12.27
2023-04-09T01:34:07.527Z,12.55
2023-04-09T01:36:35.657Z,12.98
2023-04-09T01:39:03.143Z,12.75
2023-04-09T01:41:32.424Z,13.27
2023-04-09T01:44:01.755Z,13.02
2023-04-09T01:46:29.989Z,13.00
2023-04-09T01:48:57.615Z,13.68
2023-04-09T01:51:24.584Z,13.15
2023-04-09T01:53:51.485Z,12.80
2023-04-09T01:56:18.262Z,13.63
2023-04-09T01:58:45.059Z,13.07
2023-04-09T02:01:22.633Z,14.18
2023-04-09T02:03:56.589Z,13.52
2023-04-09T02:06:41.905Z,14.82
2023-04-09T02:09:09.771Z,14.77
2023-04-09T02:11:43.012Z,13.50
2023-04-09T02:14:11.570Z,15.48
2023-04-09T02:16:39.677Z,15.45
2023-04-09T02:19:06.366Z,15.77
2023-04-09T02:21:33.090Z,14.90
2023-04-09T02:23:59.789Z,15.02
2023-04-09T02:26:26.456Z,15.00
2023-04-09T02:28:53.193Z,14.80
2023-04-09T02:31:20.513Z,13.90
2023-04-09T02:33:47.186Z,13.98
2023-04-09T02:36:13.934Z,14.18
2023-04-09T02:38:42.325Z,14.23
2023-04-09T02:41:09.402Z,14.88
2023-04-09T02:43:36.226Z,14.05
2023-04-09T02:46:03.378Z,14.57
2023-04-09T02:48:31.018Z,15.80
2023-04-09T02:50:57.675Z,14.45
2023-04-09T02:53:25.336Z,15.82
2023-04-09T02:55:52.046Z,14.73
2023-04-09T02:58:18.716Z,15.55
2023-04-09T03:00:45.439Z,15.00
2023-04-09T03:03:12.280Z,16.25
2023-04-09T03:05:39.071Z,14.98
2023-04-09T03:08:05.750Z,15.98
2023-04-09T03:10:32.463Z,15.65
2023-04-09T03:12:59.175Z,15.65
2023-04-09T03:15:25.906Z,16.00
2023-04-09T03:17:52.628Z,17.15
2023-04-09T03:20:20.942Z,17.27
2023-04-09T03:22:47.662Z,16.85
2023-04-09T03:25:23.058Z,14.00
2023-04-09T03:27:53.322Z,16.23
2023-04-09T03:30:30.505Z,15.77
2023-04-09T03:32:59.534Z,15.85
2023-04-09T03:35:28.477Z,16.00
2023-04-09T03:37:58.680Z,15.82
2023-04-09T03:40:25.536Z,17.13
2023-04-09T03:42:52.303Z,15.88
2023-04-09T03:45:19.124Z,16.33
2023-04-09T03:47:48.777Z,17.13
2023-04-09T03:50:16.650Z,17.25
2023-04-09T03:52:52.801Z,17.50
2023-04-09T03:55:19.600Z,16.73
2023-04-09T03:57:48.024Z,16.83
2023-04-09T04:00:18.301Z,17.52
2023-04-09T04:02:52.015Z,17.33
2023-04-09T04:05:33.704Z,16.40
2023-04-09T04:08:05.615Z,15.95
2023-04-09T04:10:34.470Z,17.25
2023-04-09T04:13:04.675Z,17.60
2023-04-09T04:15:42.034Z,16.85
2023-04-09T04:18:10.877Z,18.38
2023-04-09T04:20:42.769Z,17.35
2023-04-09T04:23:13.068Z,17.48
2023-04-09T04:25:48.927Z,17.92
2023-04-09T04:28:23.454Z,17.80
2023-04-09T04:30:50.130Z,18.80
2023-04-09T04:33:16.853Z,17.10
2023-04-09T04:35:49.002Z,17.58
2023-04-09T04:38:35.077Z,18.55
2023-04-09T04:41:05.876Z,16.30
2023-04-09T04:43:36.495Z,18.17
2023-04-09T04:46:03.267Z,17.42
2023-04-09T04:48:31.945Z,17.77
2023-04-09T04:51:00.503Z,18.92
2023-04-09T04:53:33.583Z,17.90
2023-04-09T04:56:12.275Z,19.73
2023-04-09T04:58:43.715Z,18.80
2023-04-09T05:01:10.433Z,17.85
2023-04-09T05:03:37.374Z,19.27
2023-04-09T05:06:24.436Z,18.38
2023-04-09T05:08:51.470Z,18.05
2023-04-09T05:11:18.417Z,19.52
2023-04-09T05:13:47.462Z,17.40
2023-04-09T05:16:18.502Z,18.85
2023-04-09T05:18:49.843Z,18.33
2023-04-09T05:21:16.962Z,17.63
2023-04-09T05:23:45.691Z,19.98
2023-04-09T05:26:12.347Z,19.48
2023-04-09T05:28:48.635Z,18.00
2023-04-09T05:31:18.864Z,18.35
2023-04-09T05:33:53.160Z,18.27
2023-04-09T05:36:25.892Z,18.65
2023-04-09T05:38:52.761Z,19.65
2023-04-09T05:41:19.782Z,20.17
2023-04-09T05:44:02.154Z,20.20
2023-04-09T05:46:29.849Z,20.60
2023-04-09T05:48:56.847Z,18.95
2023-04-09T05:51:25.728Z,18.38
2023-04-09T05:53:52.897Z,20.52
2023-04-09T05:56:22.590Z,19.83
2023-04-09T05:58:56.014Z,20.15
2023-04-09T06:01:22.884Z,19.77
2023-04-09T06:03:49.965Z,20.15
2023-04-09T06:06:17.042Z,19.33
2023-04-09T06:08:44.927Z,19.90
2023-04-09T06:11:12.180Z,20.33
2023-04-09T06:13:38.875Z,20.70
2023-04-09T06:16:07.219Z,21.13
2023-04-09T06:18:34.491Z,19.98
2023-04-09T06:21:08.643Z,20.38
2023-04-09T06:23:36.296Z,22.00
2023-04-09T06:26:03.186Z,22.00
2023-04-09T06:28:31.411Z,20.33
2023-04-09T06:30:58.825Z,22.45
2023-04-09T06:33:25.897Z,20.90
2023-04-09T06:35:52.653Z,22.02
2023-04-09T06:38:19.419Z,20.30
2023-04-09T06:40:46.376Z,20.83
2023-04-09T06:43:13.270Z,20.65
2023-04-09T06:45:50.988Z,22.30
2023-04-09T06:48:18.755Z,21.52
2023-04-09T06:50:45.789Z,21.15
2023-04-09T06:53:12.468Z,21.17
2023-04-09T06:55:39.185Z,21.15
2023-04-09T06:58:05.814Z,20.42
2023-04-09T07:00:32.513Z,21.95
2023-04-09T07:02:59.493Z,21.30
2023-04-09T07:05:26.339Z,20.75
2023-04-09T07:07:53.053Z,20.33
2023-04-09T07:10:19.748Z,20.23
2023-04-09T07:12:46.430Z,21.10
2023-04-09T07:15:13.163Z,19.30
2023-04-09T07:17:39.955Z,20.27
2023-04-09T07:20:07.025Z,19.83
2023-04-09T07:22:33.666Z,18.85
2023-04-09T07:25:00.522Z,18.20
2023-04-09T07:27:28.443Z,19.42
2023-04-09T07:29:59.305Z,18.42
2023-04-09T07:32:28.024Z,18.38
2023-04-09T07:34:55.750Z,18.50
2023-04-09T07:37:22.680Z,17.77
2023-04-09T07:39:51.375Z,19.05
2023-04-09T07:42:18.211Z,17.42
2023-04-09T07:44:44.929Z,17.98
2023-04-09T07:47:12.807Z,17.05
2023-04-09T07:49:39.821Z,18.08
2023-04-09T07:52:06.972Z,16.83
2023-04-09T07:54:34.623Z,16.45
2023-04-09T07:57:01.696Z,16.63
2023-04-09T07:59:29.468Z,16.10
2023-04-09T08:01:56.358Z,16.75
2023-04-09T08:04:23.319Z,17.10
2023-04-09T08:06:51.125Z,17.58
2023-04-09T08:09:18.385Z,18.38
2023-04-09T08:11:45.794Z,16.90
2023-04-09T08:14:13.014Z,16.38
2023-04-09T08:16:44.933Z,16.77
2023-04-09T08:19:12.175Z,16.42
2023-04-09T08:21:40.412Z,15.57
2023-04-09T08:24:07.509Z,16.02
2023-04-09T08:26:34.167Z,15.52
2023-04-09T08:29:01.415Z,16.13
2023-04-09T08:31:28.408Z,16.17
2023-04-09T08:33:55.071Z,13.68
2023-04-09T08:36:22.155Z,12.82
2023-04-09T08:38:49.156Z,12.02
2023-04-09T08:41:28.478Z,11.40
2023-04-09T08:43:58.883Z,10.98
2023-04-09T08:46:27.415Z,11.05
2023-04-09T08:48:54.738Z,10.93
2023-04-09T08:51:24.353Z,10.30
2023-04-09T08:54:00.792Z,9.80
2023-04-09T08:56:29.146Z,10.00
2023-04-09T08:58:56.533Z,9.77
2023-04-09T09:01:30.503Z,9.65
2023-04-09T09:03:59.405Z,9.43
2023-04-09T09:06:32.739Z,9.38
2023-04-09T09:09:07.529Z,9.27
2023-04-09T09:11:36.208Z,9.80
2023-04-09T09:14:07.932Z,9.40
2023-04-09T09:16:36.263Z,9.43
2023-04-09T09:19:03.396Z,9.07
2023-04-09T09:21:30.312Z,9.30
2023-04-09T09:23:57.748Z,8.00
2023-04-09T09:26:29.878Z,8.93
2023-04-09T09:29:01.100Z,8.55
2023-04-09T09:31:28.160Z,7.78
2023-04-09T09:33:55.030Z,9.05
2023-04-09T09:36:33.015Z,8.10
2023-04-09T09:39:03.695Z,8.30
2023-04-09T09:41:30.965Z,8.10
2023-04-09T09:43:57.658Z,7.18
2023-04-09T09:46:26.174Z,7.25
2023-04-09T09:48:53.371Z,7.15
2023-04-09T09:51:26.391Z,7.53
2023-04-09T09:53:57.080Z,7.72
2023-04-09T09:56:32.326Z,6.75
2023-04-09T09:59:22.583Z,5.30
2023-04-09T10:01:56.008Z,6.63
2023-04-09T10:04:25.388Z,7.20
2023-04-09T10:06:53.636Z,7.57
2023-04-09T10:09:22.017Z,6.93
2023-04-09T10:11:49.510Z,6.03
2023-04-09T10:14:18.627Z,6.13
2023-04-09T10:16:46.702Z,7.38
2023-04-09T10:19:14.966Z,7.13
2023-04-09T10:21:54.670Z,7.13
2023-04-09T10:24:22.249Z,7.35
2023-04-09T10:26:48.945Z,6.68
2023-04-09T10:29:16.430Z,7.15
2023-04-09T10:32:03.131Z,8.68
2023-04-09T10:34:29.914Z,7.82
2023-04-09T10:36:57.656Z,7.32
2023-04-09T10:39:31.988Z,8.00
2023-04-09T10:42:07.340Z,8.38
2023-04-09T10:44:35.944Z,7.25
2023-04-09T10:47:04.012Z,8.65
2023-04-09T10:49:38.017Z,7.93
2023-04-09T10:52:13.611Z,8.48
2023-04-09T10:54:45.434Z,7.63
2023-04-09T10:57:17.700Z,7.18
2023-04-09T10:59:49.714Z,8.73
2023-04-09T11:02:40.461Z,8.43
2023-04-09T11:05:22.987Z,8.10
2023-04-09T11:08:09.534Z,8.25
2023-04-09T11:10:38.094Z,8.70
2023-04-09T11:13:05.357Z,7.97
2023-04-09T11:15:34.972Z,7.43
2023-04-09T11:18:02.223Z,7.03
2023-04-09T11:20:30.982Z,8.27
2023-04-09T11:22:59.595Z,7.93
2023-04-09T11:25:28.652Z,8.43
2023-04-09T11:27:55.680Z,7.88
2023-04-09T11:30:22.401Z,7.63
2023-04-09T11:32:50.462Z,7.50
2023-04-09T11:35:22.471Z,6.53
2023-04-09T11:37:50.095Z,7.45
2023-04-09T11:40:21.404Z,7.60
2023-04-09T11:42:52.718Z,6.93
2023-04-09T11:45:23.134Z,7.43
2023-04-09T11:47:50.211Z,7.03
2023-04-09T11:50:17.311Z,6.95
2023-04-09T11:52:46.074Z,6.78
2023-04-09T11:55:22.455Z,6.00
2023-04-09T11:57:51.057Z,6.30
2023-04-09T12:00:18.172Z,6.93
2023-04-09T12:02:46.909Z,7.10
2023-04-09T12:05:23.081Z,6.57
2023-04-09T12:07:56.368Z,6.88
2023-04-09T12:10:30.625Z,6.82
2023-04-09T12:13:08.301Z,6.97
2023-04-09T12:15:37.137Z,6.88
2023-04-09T12:18:08.135Z,6.80
2023-04-09T12:20:36.748Z,6.75
2023-04-09T12:23:04.922Z,6.47
2023-04-09T12:25:42.238Z,6.07
2023-04-09T12:28:11.765Z,7.10
2023-04-09T12:30:38.472Z,7.80
2023-04-09T12:33:07.088Z,6.35
2023-04-09T12:35:35.532Z,6.72
2023-04-09T12:38:02.186Z,6.30
2023-04-09T12:40:28.980Z,7.05
2023-04-09T12:42:55.766Z,6.63
2023-04-09T12:45:23.120Z,6.88
2023-04-09T12:47:50.008Z,6.70
2023-04-09T12:50:17.093Z,6.70
2023-04-09T12:52:44.420Z,7.07
2023-04-09T12:55:12.135Z,7.50
2023-04-09T12:57:39.848Z,7.85
2023-04-09T13:00:07.588Z,7.68
2023-04-09T13:02:35.055Z,7.18
2023-04-09T13:05:01.870Z,7.10
2023-04-09T13:07:29.416Z,6.43
2023-04-09T13:09:57.221Z,7.10
2023-04-09T13:12:25.009Z,7.35
2023-04-09T13:14:54.152Z,6.47
2023-04-09T13:17:21.085Z,7.15
2023-04-09T13:19:47.940Z,7.28
2023-04-09T13:22:14.761Z,6.72
2023-04-09T13:24:43.045Z,6.22
2023-04-09T13:27:10.972Z,6.30
2023-04-09T13:29:37.963Z,6.28
2023-04-09T13:32:07.325Z,6.78
2023-04-09T13:34:35.218Z,7.38
2023-04-09T13:37:05.225Z,6.88
2023-04-09T13:39:32.087Z,7.05
2023-04-09T13:41:59.604Z,6.57
2023-04-09T13:44:26.712Z,6.22
2023-04-09T13:46:53.451Z,6.68
2023-04-09T13:49:20.970Z,6.47
2023-04-09T13:51:49.353Z,6.28
2023-04-09T13:54:16.522Z,5.65
2023-04-09T13:56:44.875Z,6.45
2023-04-09T13:59:11.748Z,6.07
2023-04-09T14:01:38.517Z,6.25
2023-04-09T14:04:05.302Z,5.97
2023-04-09T14:06:32.031Z,5.38
2023-04-09T14:08:58.730Z,6.18
2023-04-09T14:11:25.440Z,4.95
2023-04-09T14:13:52.376Z,5.88
2023-04-09T14:16:19.428Z,5.93
2023-04-09T14:18:46.235Z,5.45
2023-04-09T14:21:13.171Z,6.22
2023-04-09T14:23:40.243Z,5.10
2023-04-09T14:26:07.111Z,5.85
2023-04-09T14:28:33.834Z,5.63
2023-04-09T14:31:01.022Z,5.28
2023-04-09T14:33:27.932Z,5.50
2023-04-09T14:35:54.736Z,5.13
2023-04-09T14:38:23.814Z,5.25
2023-04-09T14:40:51.361Z,5.72
2023-04-09T14:43:18.112Z,5.28
2023-04-09T14:45:44.890Z,6.00
2023-04-09T14:48:11.557Z,5.70
2023-04-09T14:50:38.245Z,5.07
2023-04-09T14:53:04.996Z,5.18
2023-04-09T14:55:31.661Z,5.05
2023-04-09T14:57:59.630Z,5.53
2023-04-09T15:00:26.640Z,5.32
2023-04-09T15:02:53.476Z,5.82
2023-04-09T15:05:20.626Z,5.72
2023-04-09T15:07:47.242Z,5.20
2023-04-09T15:10:14.076Z,5.75
2023-04-09T15:12:40.870Z,5.32
2023-04-09T15:15:09.127Z,6.15
2023-04-09T15:17:36.386Z,5.40
2023-04-09T15:20:04.079Z,5.40
2023-04-09T15:22:30.836Z,5.40
2023-04-09T15:24:57.602Z,6.60
2023-04-09T15:27:24.505Z,6.03
2023-04-09T15:29:51.849Z,5.80
2023-04-09T15:32:19.197Z,5.57
2023-04-09T15:34:46.014Z,6.63
2023-04-09T15:37:12.759Z,5.78
2023-04-09T15:39:39.440Z,5.90
2023-04-09T15:42:07.312Z,6.20
2023-04-09T15:44:36.289Z,5.72
2023-04-09T15:47:03.042Z,5.43
2023-04-09T15:49:29.834Z,5.82
2023-04-09T15:51:56.491Z,6.38
2023-04-09T15:54:23.164Z,5.35
2023-04-09T15:56:49.823Z,5.72
2023-04-09T15:59:16.750Z,5.78
2023-04-09T16:01:44.154Z,6.13
2023-04-09T16:04:10.950Z,6.43
2023-04-09T16:06:39.248Z,5.50
2023-04-09T16:09:05.988Z,5.75
2023-04-09T16:11:35.686Z,6.18
2023-04-09T16:14:02.376Z,6.18
2023-04-09T16:16:29.118Z,5.95
2023-04-09T16:18:56.091Z,6.03
2023-04-09T16:21:22.881Z,5.93
2023-04-09T16:23:49.580Z,5.60
2023-04-09T16:26:16.304Z,6.03
2023-04-09T16:28:42.988Z,6.15
2023-04-09T16:31:09.628Z,6.32
2023-04-09T16:33:36.296Z,6.45
2023-04-09T16:36:03.101Z,5.97
2023-04-09T16:38:31.056Z,6.82
2023-04-09T16:40:57.777Z,7.80
2023-04-09T16:43:25.206Z,6.75
2023-04-09T16:45:52.190Z,7.05
2023-04-09T16:48:19.248Z,7.90
2023-04-09T16:50:45.941Z,7.32
2023-04-09T16:53:12.636Z,7.20
2023-04-09T16:55:39.344Z,6.15
2023-04-09T16:58:06.154Z,7.38
2023-04-09T17:00:32.822Z,7.35
2023-04-09T17:02:59.762Z,6.68
2023-04-09T17:05:26.565Z,6.70
2023-04-09T17:07:53.573Z,8.38
2023-04-09T17:10:20.768Z,9.10
2023-04-09T17:12:48.092Z,8.70
2023-04-09T17:15:15.200Z,8.43
2023-04-09T17:17:43.540Z,9.32
2023-04-09T17:20:11.295Z,8.77
2023-04-09T17:22:39.166Z,11.65
2023-04-09T17:25:06.252Z,13.65
2023-04-09T17:27:33.122Z,14.77
2023-04-09T17:29:59.805Z,14.23
2023-04-09T17:32:26.462Z,11.73
2023-04-09T17:34:53.166Z,10.93
2023-04-09T17:37:19.939Z,9.68
2023-04-09T17:39:46.574Z,10.70
2023-04-09T17:42:13.315Z,11.63
2023-04-09T17:44:40.001Z,15.60
2023-04-09T17:47:07.367Z,18.60
2023-04-09T17:49:34.458Z,17.45
2023-04-09T17:52:01.488Z,20.02
2023-04-09T17:54:33.780Z,21.50
2023-04-09T17:57:01.632Z,21.35
2023-04-09T17:59:28.882Z,19.48
2023-04-09T18:01:56.623Z,17.95
2023-04-09T18:04:24.329Z,16.55
2023-04-09T18:06:51.506Z,17.60
2023-04-09T18:09:18.369Z,22.13
2023-04-09T18:11:45.754Z,43.67
2023-04-09T18:14:12.577Z,43.15
2023-04-09T18:16:39.589Z,42.67
2023-04-09T18:19:07.108Z,44.42
2023-04-09T18:21:36.368Z,47.15
2023-04-09T18:24:03.685Z,44.30
2023-04-09T18:26:31.229Z,41.85
2023-04-09T18:29:00.753Z,38.85
2023-04-09T18:31:27.786Z,34.67
2023-04-09T18:33:54.501Z,27.10
2023-04-09T18:36:21.274Z,24.33
2023-04-09T18:38:48.154Z,20.92
2023-04-09T18:41:25.365Z,18.75
2023-04-09T18:43:52.462Z,18.17
2023-04-09T18:46:19.249Z,16.65
2023-04-09T18:48:47.006Z,17.38
2023-04-09T18:51:14.343Z,18.92
2023-04-09T18:53:41.741Z,20.92
2023-04-09T18:56:08.397Z,23.23
2023-04-09T18:58:35.998Z,26.50
2023-04-09T19:01:12.295Z,29.90
2023-04-09T19:03:40.169Z,31.02
2023-04-09T19:06:15.085Z,30.55
2023-04-09T19:08:42.112Z,30.33
2023-04-09T19:11:08.825Z,29.88
2023-04-09T19:13:36.585Z,30.30
2023-04-09T19:16:04.015Z,31.83
2023-04-09T19:18:31.424Z,33.40
2023-04-09T19:20:58.449Z,34.67
2023-04-09T19:23:25.660Z,38.45
2023-04-09T19:25:55.050Z,44.22
2023-04-09T19:28:22.626Z,58.15
2023-04-09T19:30:52.220Z,78.85
2023-04-09T19:33:21.253Z,74.50
2023-04-09T19:35:49.410Z,76.30
2023-04-09T19:38:16.615Z,71.55
2023-04-09T19:40:43.816Z,77.80
2023-04-09T19:43:11.085Z,68.07
2023-04-09T19:45:38.615Z,63.78
2023-04-09T19:48:06.466Z,56.45
2023-04-09T19:50:46.416Z,53.90
2023-04-09T19:53:13.078Z,49.67
2023-04-09T19:55:39.754Z,44.40
2023-04-09T19:58:07.146Z,41.35
2023-04-09T20:00:34.533Z,37.13
2023-04-09T20:03:02.604Z,35.72
2023-04-09T20:05:29.525Z,33.63
2023-04-09T20:07:56.196Z,32.88
2023-04-09T20:10:22.952Z,32.13
2023-04-09T20:12:51.079Z,32.80
2023-04-09T20:15:20.114Z,33.35
2023-04-09T20:17:48.139Z,31.65
2023-04-09T20:20:17.813Z,31.48
2023-04-09T20:22:47.346Z,29.85
2023-04-09T20:25:14.515Z,30.45
2023-04-09T20:27:41.269Z,30.60
2023-04-09T20:30:08.645Z,31.38
2023-04-09T20:32:36.993Z,29.98
2023-04-09T20:35:04.645Z,28.75
2023-04-09T20:37:31.434Z,30.30
2023-04-09T20:39:59.482Z,31.13
2023-04-09T20:42:26.413Z,29.92
2023-04-09T20:44:53.201Z,28.60
2023-04-09T20:47:22.792Z,29.48
2023-04-09T20:49:50.929Z,30.10
2023-04-09T20:52:17.797Z,28.75
2023-04-09T20:54:45.297Z,29.75
2023-04-09T20:57:13.806Z,28.35
2023-04-09T20:59:40.684Z,29.23
2023-04-09T21:02:08.393Z,28.73
2023-04-09T21:04:35.271Z,28.80
2023-04-09T21:07:01.912Z,30.13
2023-04-09T21:09:29.098Z,30.88
2023-04-09T21:11:55.919Z,32.88
2023-04-09T21:14:22.772Z,37.08
2023-04-09T21:16:49.466Z,40.75
2023-04-09T21:19:16.578Z,37.38
2023-04-09T21:21:43.201Z,34.38
2023-04-09T21:24:09.947Z,34.83
2023-04-09T21:26:49.890Z,32.28
2023-04-09T21:29:21.936Z,32.78
2023-04-09T21:31:49.459Z,32.58
2023-04-09T21:34:16.363Z,31.85
2023-04-09T21:36:44.830Z,30.45
2023-04-09T21:39:12.206Z,30.30
2023-04-09T21:41:39.362Z,28.65
2023-04-09T21:44:08.188Z,28.80
2023-04-09T21:46:36.902Z,30.10
2023-04-09T21:49:04.244Z,31.58
2023-04-09T21:51:31.554Z,32.35
2023-04-09T21:54:05.958Z,30.52
2023-04-09T21:56:33.341Z,31.90
2023-04-09T21:59:00.782Z,34.13
2023-04-09T22:01:31.310Z,33.10
2023-04-09T22:03:59.479Z,32.67
2023-04-09T22:06:27.233Z,32.67
2023-04-09T22:08:56.828Z,33.80
2023-04-09T22:11:28.416Z,31.08
2023-04-09T22:13:56.759Z,32.22
2023-04-09T22:16:24.024Z,29.08
2023-04-09T22:18:51.734Z,30.60
2023-04-09T22:21:18.705Z,29.55
2023-04-09T22:23:45.644Z,29.20
2023-04-09T22:26:12.320Z,29.25
2023-04-09T22:28:39.202Z,28.52
2023-04-09T22:31:06.324Z,28.63
2023-04-09T22:33:33.105Z,28.60
2023-04-09T22:35:59.982Z,26.58
2023-04-09T22:38:26.876Z,27.10
2023-04-09T22:40:53.949Z,29.83
2023-04-09T22:43:20.618Z,29.45
2023-04-09T22:45:52.191Z,28.75
2023-04-09T22:48:20.480Z,26.88
2023-04-09T22:50:48.220Z,29.02
2023-04-09T22:53:18.600Z,28.33
2023-04-09T22:55:47.422Z,29.50
2023-04-09T22:58:14.394Z,26.00
2023-04-09T23:00:41.182Z,29.00
2023-04-09T23:03:08.387Z,28.52
2023-04-09T23:05:35.567Z,28.85
2023-04-09T23:08:02.321Z,28.33
2023-04-09T23:10:29.108Z,30.38
2023-04-09T23:12:56.996Z,29.42
2023-04-09T23:15:23.677Z,29.80
2023-04-09T23:17:51.874Z,31.08
2023-04-09T23:20:18.727Z,30.27
2023-04-09T23:22:48.971Z,30.45
2023-04-09T23:25:16.552Z,30.35
2023-04-09T23:27:43.745Z,29.05
2023-04-09T23:30:11.136Z,30.15
2023-04-09T23:32:37.806Z,31.83
2023-04-09T23:35:05.418Z,31.13
2023-04-09T23:37:32.108Z,31.70
2023-04-09T23:39:58.804Z,31.30
2023-04-09T23:42:29.736Z,30.48
2023-04-09T23:44:56.430Z,31.15
2023-04-09T23:47:23.198Z,31.83
2023-04-09T23:49:49.985Z,29.92
2023-04-09T23:52:16.659Z,31.27
2023-04-09T23:54:50.078Z,31.25
2023-04-09T23:57:17.707Z,29.83
2023-04-09T23:59:44.330Z,31.83
